Time;durP1;ratioP1;P1;durP2;ratioP2;P2;SDS_P1;SDS_P2;PMS_P1;PMS_P2;Temp;Humidity;BMP_temperature;BMP_pressure;BME280_temperature;BME280_humidity;BME280_pressure;Samples;Min_cycle;Max_cycle;Signal;HPM_P1;HPM_P2
2023/10/20 00:01:00;;;;;;;6.55;4.05;;;;;;;19.15;100.00;101259.09;20976689;28;20425;-74
2023/10/20 00:11:25;;;;;;;6.95;4.32;;;;;;;18.84;100.00;101253.19;20965026;28;20472;-73
2023/10/20 00:21:50;;;;;;;7.75;4.82;;;;;;;18.84;100.00;101250.50;20952425;28;20059;-73
2023/10/20 00:32:12;;;;;;;6.68;4.68;;;;;;;19.02;100.00;101241.41;21017636;28;20071;-74
2023/10/20 00:42:36;;;;;;;7.40;4.53;;;;;;;18.93;100.00;101237.03;20988095;28;20140;-74
2023/10/20 00:52:59;;;;;;;8.65;5.57;;;;;;;18.93;100.00;101236.16;20966619;28;20102;-74
2023/10/20 01:03:23;;;;;;;7.53;4.55;;;;;;;18.87;100.00;101233.53;21013639;28;20048;-74
2023/10/20 01:13:46;;;;;;;10.90;5.00;;;;;;;18.80;100.00;101234.50;20978274;28;20063;-73
2023/10/20 01:24:11;;;;;;;8.88;4.82;;;;;;;18.75;100.00;101228.31;20993563;28;20048;-74
2023/10/20 01:34:35;;;;;;;8.68;4.90;;;;;;;18.55;100.00;101225.81;20989917;28;20067;-74
2023/10/20 01:44:59;;;;;;;8.85;5.80;;;;;;;18.36;100.00;101224.22;20994343;28;20055;-73
2023/10/20 01:55:22;;;;;;;10.57;5.90;;;;;;;18.42;100.00;101227.72;20989741;28;20044;-74
2023/10/20 02:05:46;;;;;;;10.18;5.80;;;;;;;18.35;100.00;101222.44;21009334;28;20057;-73
2023/10/20 02:16:10;;;;;;;10.32;5.68;;;;;;;18.08;100.00;101236.91;20966723;28;20144;-73
2023/10/20 02:26:34;;;;;;;8.90;5.55;;;;;;;18.21;100.00;101241.25;20957594;28;20083;-74
2023/10/20 02:36:56;;;;;;;11.48;6.45;;;;;;;18.20;100.00;101239.47;20978965;28;20100;-73
2023/10/20 02:47:20;;;;;;;13.23;6.18;;;;;;;18.00;100.00;101246.75;20989342;28;20067;-74
2023/10/20 02:57:43;;;;;;;9.35;6.28;;;;;;;17.94;100.00;101250.38;20993862;28;20139;-73
2023/10/20 03:08:08;;;;;;;14.10;6.72;;;;;;;18.04;100.00;101252.09;20963857;28;21525;-73
2023/10/20 03:18:31;;;;;;;10.15;6.38;;;;;;;17.94;100.00;101258.38;20951884;28;20044;-73
2023/10/20 03:28:56;;;;;;;12.80;6.45;;;;;;;17.82;100.00;101255.78;21001011;28;20554;-74
2023/10/20 03:39:21;;;;;;;12.25;7.05;;;;;;;17.77;100.00;101258.50;20990413;28;20052;-73
2023/10/20 03:49:45;;;;;;;16.13;8.02;;;;;;;17.76;100.00;101255.84;20956704;28;20059;-74
2023/10/20 04:00:17;;;;;;;11.38;6.70;;;;;;;17.41;100.00;101261.31;20984536;28;20556;-74
2023/10/20 04:10:42;;;;;;;9.82;6.30;;;;;;;17.27;100.00;101272.03;20992164;28;20045;-73
2023/10/20 04:21:05;;;;;;;12.98;6.65;;;;;;;17.58;100.00;101277.28;20994681;28;20260;-74
2023/10/20 04:53:11;;;;;;;8.35;5.75;;;;;;;17.45;100.00;101289.78;20979407;28;20148;-73
2023/10/20 05:03:45;;;;;;;;;;;;;;;17.61;100.00;101304.88;20999715;28;20102;-73
2023/10/20 05:14:10;;;;;;;8.07;4.88;;;;;;;18.10;100.00;101332.22;20982869;28;19952;-73
2023/10/20 05:24:32;;;;;;;14.45;5.18;;;;;;;18.96;100.00;101340.50;20994714;28;20052;-74
2023/10/20 05:34:59;;;;;;;9.95;3.70;;;;;;;19.81;100.00;101345.81;20984590;28;20118;-74
2023/10/20 05:45:21;;;;;;;6.13;3.28;;;;;;;20.36;100.00;101347.72;20975083;28;20037;-74
2023/10/20 05:55:46;;;;;;;5.40;3.15;;;;;;;20.99;100.00;101344.91;20966041;28;20036;-73
2023/10/20 06:06:10;;;;;;;7.57;3.25;;;;;;;21.76;100.00;101347.91;20879104;28;20048;-74
2023/10/20 06:16:34;;;;;;;8.45;2.22;;;;;;;22.50;100.00;101346.25;20867795;28;20041;-74
2023/10/20 06:27:02;;;;;;;9.30;2.30;;;;;;;23.41;100.00;101333.09;20876164;28;20060;-74
2023/10/20 06:37:28;;;;;;;5.13;2.20;;;;;;;24.09;100.00;101322.09;20920346;28;20047;-74
2023/10/20 06:47:50;;;;;;;4.10;1.85;;;;;;;24.46;100.00;101329.94;20902198;28;20071;-74
2023/10/20 06:58:17;;;;;;;4.18;2.20;;;;;;;24.82;100.00;101322.41;20887801;28;20119;-74
2023/10/20 07:08:39;;;;;;;3.57;1.87;;;;;;;25.21;100.00;101328.25;20988884;28;20845;-74
2023/10/20 07:19:06;;;;;;;6.15;1.90;;;;;;;25.88;100.00;101324.91;20935083;28;20374;-74
2023/10/20 07:29:28;;;;;;;3.80;1.50;;;;;;;26.51;100.00;101327.78;20899997;28;20049;-73
2023/10/20 07:39:53;;;;;;;4.93;1.70;;;;;;;26.95;100.00;101323.22;20868118;28;20291;-74
2023/10/20 07:50:17;;;;;;;5.38;1.60;;;;;;;27.48;100.00;101321.78;20944816;28;20048;-73
2023/10/20 08:00:41;;;;;;;5.15;1.90;;;;;;;27.92;92.63;101314.31;20956554;28;20139;-72
2023/10/20 08:11:06;;;;;;;6.32;1.60;;;;;;;28.22;85.09;101309.31;20987518;28;20052;-72
2023/10/20 08:21:30;;;;;;;4.40;1.40;;;;;;;28.40;79.34;101306.56;20992463;28;20608;-74
2023/10/20 08:31:53;;;;;;;3.47;1.35;;;;;;;28.86;73.53;101304.25;20979246;28;20059;-74
2023/10/20 08:42:20;;;;;;;5.10;1.50;;;;;;;29.15;68.06;101292.72;20910097;28;20052;-74
2023/10/20 08:52:44;;;;;;;2.70;1.30;;;;;;;29.52;62.63;101296.22;20849675;28;20099;-74
2023/10/20 09:03:08;;;;;;;6.75;1.95;;;;;;;29.83;65.96;101293.56;20929304;28;20099;-74
2023/10/20 09:13:34;;;;;;;3.20;1.38;;;;;;;29.78;69.54;101292.94;20867343;28;20143;-75
2023/10/20 09:23:59;;;;;;;;;;;;;;;30.26;63.27;101282.97;20868673;28;20088;-75
2023/10/20 09:34:22;;;;;;;3.58;1.33;;;;;;;30.46;56.40;101264.47;20889215;28;19921;-75
2023/10/20 09:44:52;;;;;;;6.07;1.75;;;;;;;30.42;59.03;101271.06;20834033;28;20048;-75
2023/10/20 09:55:15;;;;;;;8.23;1.55;;;;;;;30.16;60.99;101246.31;20904360;28;20048;-75
2023/10/20 10:05:39;;;;;;;7.10;1.92;;;;;;;29.92;64.43;101243.19;20980714;28;20045;-74
2023/10/20 10:16:13;;;;;;;5.97;1.65;;;;;;;29.90;65.67;101236.91;20895314;28;20053;-74
2023/10/20 10:26:45;;;;;;;6.57;2.45;;;;;;;29.72;66.94;101222.50;20905923;28;20049;-75
2023/10/20 10:37:08;;;;;;;4.10;1.50;;;;;;;29.45;73.13;101221.31;20906462;28;20735;-74
2023/10/20 10:47:32;;;;;;;4.60;1.17;;;;;;;29.33;77.17;101225.56;20876980;28;20432;-74
2023/10/20 10:57:55;;;;;;;6.13;1.73;;;;;;;29.12;79.90;101216.72;20901099;28;20103;-74
2023/10/20 11:08:20;;;;;;;6.57;1.92;;;;;;;29.10;79.79;101226.81;20866947;28;20053;-73
2023/10/20 11:18:46;;;;;;;4.93;1.90;;;;;;;29.15;82.86;101216.56;20832989;28;20055;-73
2023/10/20 11:29:10;;;;;;;4.93;1.90;;;;;;;28.98;81.80;101211.16;20881301;28;20057;-73
2023/10/20 11:39:36;;;;;;;3.50;1.73;;;;;;;28.62;86.55;101205.78;20860960;28;20073;-73
2023/10/20 11:50:02;;;;;;;5.55;1.83;;;;;;;28.42;90.13;101214.13;20923833;28;20457;-73
2023/10/20 12:00:24;;;;;;;4.10;1.90;;;;;;;28.23;93.01;101214.13;20874677;28;20076;-73
2023/10/20 12:10:49;;;;;;;6.22;2.40;;;;;;;28.02;97.69;101201.63;20873029;28;20119;-73
2023/10/20 12:21:12;;;;;;;8.95;2.92;;;;;;;27.95;98.89;101211.91;20888251;28;20098;-74
2023/10/20 12:31:37;;;;;;;5.57;2.13;;;;;;;27.80;100.00;101219.91;20874674;28;20147;-74
2023/10/20 12:42:03;;;;;;;5.18;2.17;;;;;;;27.64;100.00;101214.34;20874321;28;20497;-74
2023/10/20 12:52:27;;;;;;;3.97;2.10;;;;;;;27.58;100.00;101203.78;20898160;28;20759;-73
2023/10/20 13:02:50;;;;;;;5.75;2.45;;;;;;;27.44;100.00;101204.41;20919939;28;20096;-73
2023/10/20 13:13:14;;;;;;;7.10;2.83;;;;;;;27.33;100.00;101213.06;20940278;28;20041;-72
2023/10/20 13:23:37;;;;;;;4.03;2.03;;;;;;;27.14;100.00;101206.72;20901874;28;20063;-72
2023/10/20 13:34:02;;;;;;;6.47;2.70;;;;;;;27.01;100.00;101218.19;20900977;28;20060;-72
2023/10/20 13:44:25;;;;;;;6.90;2.42;;;;;;;26.79;100.00;101196.53;20911413;28;20099;-73
2023/10/20 13:54:49;;;;;;;7.03;3.13;;;;;;;26.50;100.00;101200.56;20888228;28;20049;-74
2023/10/20 14:05:18;;;;;;;7.50;3.20;;;;;;;26.30;100.00;101214.06;20894437;28;20532;-73
2023/10/20 14:15:43;;;;;;;6.50;3.10;;;;;;;26.17;100.00;101217.25;20952328;28;20045;-74
2023/10/20 14:26:05;;;;;;;7.93;3.45;;;;;;;25.97;100.00;101225.31;20928159;28;20056;-73
2023/10/20 14:36:31;;;;;;;9.35;3.85;;;;;;;25.76;100.00;101224.34;20917158;28;20049;-74
2023/10/20 14:46:53;;;;;;;6.40;3.78;;;;;;;25.59;100.00;101236.78;20924039;28;20048;-74
2023/10/20 14:57:18;;;;;;;6.72;3.88;;;;;;;25.39;100.00;101251.91;20875207;28;20103;-74
2023/10/20 15:07:42;;;;;;;8.27;4.05;;;;;;;25.21;100.00;101247.19;20920913;28;20064;-74
2023/10/20 15:18:07;;;;;;;9.85;4.65;;;;;;;25.01;100.00;101238.91;20901262;28;20079;-74
2023/10/20 15:28:30;;;;;;;11.65;4.68;;;;;;;24.86;100.00;101255.66;20924501;28;20063;-73
2023/10/20 15:38:54;;;;;;;7.25;4.05;;;;;;;24.70;100.00;101259.81;20850187;28;20053;-74
2023/10/20 15:49:17;;;;;;;12.45;5.45;;;;;;;24.53;100.00;101274.81;20860049;28;20485;-73
2023/10/20 15:59:41;;;;;;;7.45;4.85;;;;;;;24.39;100.00;101287.88;20900511;28;20071;-73
2023/10/20 16:10:04;;;;;;;13.60;4.57;;;;;;;24.25;100.00;101295.53;20910935;28;20102;-74
2023/10/20 16:20:29;;;;;;;7.85;4.40;;;;;;;24.11;100.00;101292.34;20897263;28;20107;-73
2023/10/20 16:30:51;;;;;;;9.85;4.35;;;;;;;24.02;100.00;101311.56;20882919;28;20064;-73
2023/10/20 16:41:16;;;;;;;9.68;5.07;;;;;;;23.90;100.00;101325.38;20896074;28;20095;-74
2023/10/20 16:51:38;;;;;;;10.23;5.53;;;;;;;23.78;100.00;101332.03;20910194;28;20139;-73
2023/10/20 17:02:02;;;;;;;10.93;5.20;;;;;;;23.65;100.00;101339.63;20890923;28;20516;-72
2023/10/20 17:12:25;;;;;;;11.02;5.78;;;;;;;23.52;100.00;101335.50;20872064;28;20054;-72
2023/10/20 17:22:49;;;;;;;12.30;5.00;;;;;;;23.43;100.00;101338.44;20906446;28;20103;-74
2023/10/20 17:33:11;;;;;;;8.40;5.00;;;;;;;23.34;100.00;101350.34;20875835;28;20053;-74
2023/10/20 17:43:36;;;;;;;11.95;5.85;;;;;;;23.29;100.00;101362.19;20881204;28;20132;-74
2023/10/20 17:53:59;;;;;;;12.23;5.63;;;;;;;23.20;100.00;101360.63;20918139;28;20056;-74
2023/10/20 18:04:23;;;;;;;9.57;4.90;;;;;;;23.14;100.00;101366.19;20933108;28;20102;-74
2023/10/20 18:14:46;;;;;;;10.18;5.07;;;;;;;23.07;100.00;101366.38;20944590;28;20539;-74
2023/10/20 18:25:12;;;;;;;11.63;5.15;;;;;;;23.01;100.00;101376.38;20894132;28;20102;-72
2023/10/20 18:35:35;;;;;;;13.88;5.38;;;;;;;22.91;100.00;101390.09;20900949;28;20049;-72
2023/10/20 18:45:59;;;;;;;9.50;5.07;;;;;;;22.82;100.00;101396.63;20871828;28;20397;-73
2023/10/20 18:56:22;;;;;;;12.23;5.10;;;;;;;22.71;100.00;101403.19;20885423;28;20045;-73
2023/10/20 19:06:47;;;;;;;9.63;5.30;;;;;;;22.59;100.00;101425.84;20906268;28;20052;-74
2023/10/20 19:17:11;;;;;;;10.18;4.97;;;;;;;22.48;100.00;101427.94;20894691;28;20045;-73
2023/10/20 19:27:35;;;;;;;10.45;4.75;;;;;;;22.39;100.00;101444.25;20866873;28;20065;-73
2023/10/20 19:37:58;;;;;;;12.32;5.15;;;;;;;22.25;100.00;101458.03;20879422;28;20390;-74
2023/10/20 19:48:23;;;;;;;9.07;4.90;;;;;;;21.98;100.00;101478.31;20901993;28;20041;-73
2023/10/20 19:58:46;;;;;;;9.07;5.05;;;;;;;21.81;100.00;101472.34;20981828;28;20048;-72
2023/10/20 20:09:10;;;;;;;10.18;4.60;;;;;;;21.65;100.00;101478.94;20999758;28;20554;-73
2023/10/20 20:19:32;;;;;;;11.15;4.18;;;;;;;21.35;100.00;101480.34;20945023;28;20048;-74
2023/10/20 20:29:57;;;;;;;7.72;3.58;;;;;;;21.35;100.00;101481.25;20998498;28;20052;-74
2023/10/20 20:40:19;;;;;;;5.88;3.28;;;;;;;20.90;100.00;101480.16;20993365;28;20044;-74
2023/10/20 20:50:44;;;;;;;6.60;3.10;;;;;;;20.88;100.00;101475.72;20980722;28;20515;-74
2023/10/20 21:01:10;;;;;;;8.95;3.70;;;;;;;20.89;100.00;101464.06;20970506;28;20098;-74
2023/10/20 21:11:36;;;;;;;6.18;2.78;;;;;;;20.62;100.00;101460.00;20997796;28;20101;-74
2023/10/20 21:21:58;;;;;;;5.28;2.33;;;;;;;20.38;100.00;101457.66;20982451;28;20052;-74
2023/10/20 21:32:22;;;;;;;5.85;2.60;;;;;;;20.17;100.00;101442.72;21000695;28;20048;-73
2023/10/20 21:42:45;;;;;;;6.20;3.35;;;;;;;20.32;100.00;101442.53;20998436;28;20040;-74
2023/10/20 21:53:09;;;;;;;6.53;2.55;;;;;;;20.23;100.00;101431.91;20993935;28;20488;-74
2023/10/20 22:03:32;;;;;;;8.75;3.65;;;;;;;20.38;100.00;101436.22;21003147;28;20053;-74
2023/10/20 22:13:57;;;;;;;8.75;3.10;;;;;;;20.55;100.00;101428.81;20984296;28;20044;-73
2023/10/20 22:24:19;;;;;;;5.63;3.03;;;;;;;20.55;100.00;101429.69;20987527;28;20090;-74
2023/10/20 22:34:44;;;;;;;8.88;3.10;;;;;;;20.53;100.00;101444.94;20975289;28;20056;-73
2023/10/20 22:45:08;;;;;;;8.90;4.18;;;;;;;20.52;100.00;101424.38;20989408;28;20074;-73
2023/10/20 22:55:32;;;;;;;9.85;4.25;;;;;;;20.55;100.00;101418.97;21001660;28;20144;-73
2023/10/20 23:05:55;;;;;;;9.48;4.22;;;;;;;20.59;100.00;101430.56;20984869;28;20445;-73
2023/10/20 23:16:19;;;;;;;9.60;5.15;;;;;;;20.55;100.00;101429.69;20946247;28;20110;-74
2023/10/20 23:26:41;;;;;;;7.13;3.75;;;;;;;20.53;100.00;101409.19;20993680;28;20052;-73
2023/10/20 23:37:07;;;;;;;9.00;4.05;;;;;;;20.47;100.00;101410.16;21006007;28;20051;-73
2023/10/20 23:47:30;;;;;;;6.25;3.13;;;;;;;20.41;100.00;101394.16;20985723;28;20048;-73
2023/10/20 23:57:54;;;;;;;5.55;2.70;;;;;;;20.34;100.00;101389.78;21018060;28;20478;-73
